sensor_id;sensor_type;location;lat;lon;timestamp;P1;durP1;ratioP1;P2;durP2;ratioP2
64199;SDS011;50516;52.272;5.136;2022-09-27T00:01:31;5.15;;;1.23;;
64199;SDS011;50516;52.272;5.136;2022-09-27T00:03:56;3.95;;;1.15;;
64199;SDS011;50516;52.272;5.136;2022-09-27T00:06:25;5.20;;;1.17;;
64199;SDS011;50516;52.272;5.136;2022-09-27T00:08:52;5.82;;;1.75;;
64199;SDS011;50516;52.272;5.136;2022-09-27T00:13:55;4.65;;;1.50;;
64199;SDS011;50516;52.272;5.136;2022-09-27T00:16:22;4.78;;;1.13;;
64199;SDS011;50516;52.272;5.136;2022-09-27T00:18:49;6.68;;;1.45;;
64199;SDS011;50516;52.272;5.136;2022-09-27T00:21:14;4.85;;;1.25;;
64199;SDS011;50516;52.272;5.136;2022-09-27T00:23:40;3.58;;;1.27;;
64199;SDS011;50516;52.272;5.136;2022-09-27T00:26:06;6.35;;;1.00;;
64199;SDS011;50516;52.272;5.136;2022-09-27T00:28:33;3.10;;;1.20;;
64199;SDS011;50516;52.272;5.136;2022-09-27T00:30:59;2.33;;;1.35;;
64199;SDS011;50516;52.272;5.136;2022-09-27T00:33:25;4.60;;;0.75;;
64199;SDS011;50516;52.272;5.136;2022-09-27T00:35:51;4.35;;;1.10;;
64199;SDS011;50516;52.272;5.136;2022-09-27T00:38:17;6.13;;;1.65;;
64199;SDS011;50516;52.272;5.136;2022-09-27T00:40:43;3.42;;;0.80;;
64199;SDS011;50516;52.272;5.136;2022-09-27T00:43:14;4.68;;;1.70;;
64199;SDS011;50516;52.272;5.136;2022-09-27T00:45:42;6.25;;;1.33;;
64199;SDS011;50516;52.272;5.136;2022-09-27T00:48:10;3.33;;;0.98;;
64199;SDS011;50516;52.272;5.136;2022-09-27T00:50:40;5.43;;;1.25;;
64199;SDS011;50516;52.272;5.136;2022-09-27T00:53:30;4.40;;;0.95;;
64199;SDS011;50516;52.272;5.136;2022-09-27T00:55:59;4.90;;;1.40;;
64199;SDS011;50516;52.272;5.136;2022-09-27T00:58:31;4.90;;;1.17;;
64199;SDS011;50516;52.272;5.136;2022-09-27T01:01:01;3.97;;;1.20;;
64199;SDS011;50516;52.272;5.136;2022-09-27T01:06:15;5.45;;;1.15;;
64199;SDS011;50516;52.272;5.136;2022-09-27T01:08:43;4.88;;;1.30;;
64199;SDS011;50516;52.272;5.136;2022-09-27T01:11:13;2.72;;;1.55;;
64199;SDS011;50516;52.272;5.136;2022-09-27T01:17:06;5.70;;;1.60;;
64199;SDS011;50516;52.272;5.136;2022-09-27T01:31:22;8.00;;;1.90;;
64199;SDS011;50516;52.272;5.136;2022-09-27T01:36:42;6.63;;;1.80;;
64199;SDS011;50516;52.272;5.136;2022-09-27T01:45:09;7.05;;;1.60;;
64199;SDS011;50516;52.272;5.136;2022-09-27T01:47:58;6.80;;;1.40;;
64199;SDS011;50516;52.272;5.136;2022-09-27T01:50:31;6.38;;;1.67;;
64199;SDS011;50516;52.272;5.136;2022-09-27T01:55:35;4.55;;;0.93;;
64199;SDS011;50516;52.272;5.136;2022-09-27T01:58:16;6.82;;;1.35;;
64199;SDS011;50516;52.272;5.136;2022-09-27T02:00:47;4.30;;;1.27;;
64199;SDS011;50516;52.272;5.136;2022-09-27T02:03:23;5.32;;;1.42;;
64199;SDS011;50516;52.272;5.136;2022-09-27T02:05:54;4.55;;;1.60;;
64199;SDS011;50516;52.272;5.136;2022-09-27T02:11:05;5.28;;;1.65;;
64199;SDS011;50516;52.272;5.136;2022-09-27T02:13:39;5.47;;;2.20;;
64199;SDS011;50516;52.272;5.136;2022-09-27T02:18:53;20.23;;;3.72;;
64199;SDS011;50516;52.272;5.136;2022-09-27T02:21:29;5.93;;;1.80;;
64199;SDS011;50516;52.272;5.136;2022-09-27T02:24:02;8.25;;;1.83;;
64199;SDS011;50516;52.272;5.136;2022-09-27T02:29:07;13.43;;;2.22;;
64199;SDS011;50516;52.272;5.136;2022-09-27T02:31:35;9.32;;;2.03;;
64199;SDS011;50516;52.272;5.136;2022-09-27T02:34:05;5.63;;;1.80;;
64199;SDS011;50516;52.272;5.136;2022-09-27T02:36:35;7.65;;;1.80;;
64199;SDS011;50516;52.272;5.136;2022-09-27T02:39:01;8.18;;;2.58;;
64199;SDS011;50516;52.272;5.136;2022-09-27T02:41:27;23.63;;;2.72;;
64199;SDS011;50516;52.272;5.136;2022-09-27T02:43:56;7.63;;;2.15;;
64199;SDS011;50516;52.272;5.136;2022-09-27T02:57:18;6.07;;;2.03;;
64199;SDS011;50516;52.272;5.136;2022-09-27T03:02:35;17.60;;;2.53;;
64199;SDS011;50516;52.272;5.136;2022-09-27T03:05:24;6.72;;;2.08;;
64199;SDS011;50516;52.272;5.136;2022-09-27T03:07:55;6.65;;;1.70;;
64199;SDS011;50516;52.272;5.136;2022-09-27T03:10:22;7.68;;;1.90;;
64199;SDS011;50516;52.272;5.136;2022-09-27T03:12:50;10.40;;;2.22;;
64199;SDS011;50516;52.272;5.136;2022-09-27T03:15:16;6.95;;;2.20;;
64199;SDS011;50516;52.272;5.136;2022-09-27T03:17:41;6.97;;;1.83;;
64199;SDS011;50516;52.272;5.136;2022-09-27T03:20:07;7.63;;;1.92;;
64199;SDS011;50516;52.272;5.136;2022-09-27T03:22:33;6.38;;;2.08;;
64199;SDS011;50516;52.272;5.136;2022-09-27T03:24:58;6.63;;;1.85;;
64199;SDS011;50516;52.272;5.136;2022-09-27T03:27:24;8.82;;;2.60;;
64199;SDS011;50516;52.272;5.136;2022-09-27T03:29:49;6.65;;;2.47;;
64199;SDS011;50516;52.272;5.136;2022-09-27T03:32:15;8.63;;;2.83;;
64199;SDS011;50516;52.272;5.136;2022-09-27T03:34:40;8.18;;;1.90;;
64199;SDS011;50516;52.272;5.136;2022-09-27T03:37:05;7.60;;;2.22;;
64199;SDS011;50516;52.272;5.136;2022-09-27T03:39:31;6.22;;;1.95;;
64199;SDS011;50516;52.272;5.136;2022-09-27T03:41:57;4.78;;;1.92;;
64199;SDS011;50516;52.272;5.136;2022-09-27T03:44:22;7.00;;;1.83;;
64199;SDS011;50516;52.272;5.136;2022-09-27T03:46:47;7.20;;;2.05;;
64199;SDS011;50516;52.272;5.136;2022-09-27T03:49:13;5.35;;;1.67;;
64199;SDS011;50516;52.272;5.136;2022-09-27T03:51:38;7.35;;;2.33;;
64199;SDS011;50516;52.272;5.136;2022-09-27T03:54:04;9.75;;;1.98;;
64199;SDS011;50516;52.272;5.136;2022-09-27T03:56:29;4.60;;;1.33;;
64199;SDS011;50516;52.272;5.136;2022-09-27T03:58:54;6.55;;;1.92;;
64199;SDS011;50516;52.272;5.136;2022-09-27T04:01:20;8.88;;;2.40;;
64199;SDS011;50516;52.272;5.136;2022-09-27T04:03:45;6.97;;;1.38;;
64199;SDS011;50516;52.272;5.136;2022-09-27T04:06:10;4.60;;;1.35;;
64199;SDS011;50516;52.272;5.136;2022-09-27T04:08:36;5.70;;;2.20;;
64199;SDS011;50516;52.272;5.136;2022-09-27T04:11:01;9.18;;;2.00;;
64199;SDS011;50516;52.272;5.136;2022-09-27T04:13:27;7.22;;;2.72;;
64199;SDS011;50516;52.272;5.136;2022-09-27T04:15:53;6.57;;;1.65;;
64199;SDS011;50516;52.272;5.136;2022-09-27T04:18:18;6.20;;;1.50;;
64199;SDS011;50516;52.272;5.136;2022-09-27T04:20:44;7.68;;;1.55;;
64199;SDS011;50516;52.272;5.136;2022-09-27T04:23:09;6.15;;;1.83;;
64199;SDS011;50516;52.272;5.136;2022-09-27T04:25:34;7.63;;;1.63;;
64199;SDS011;50516;52.272;5.136;2022-09-27T04:28:00;7.63;;;1.80;;
64199;SDS011;50516;52.272;5.136;2022-09-27T04:30:27;6.90;;;2.20;;
64199;SDS011;50516;52.272;5.136;2022-09-27T04:32:53;8.27;;;2.05;;
64199;SDS011;50516;52.272;5.136;2022-09-27T04:35:18;9.80;;;1.90;;
64199;SDS011;50516;52.272;5.136;2022-09-27T04:38:04;7.35;;;2.10;;
64199;SDS011;50516;52.272;5.136;2022-09-27T04:40:32;4.53;;;1.63;;
64199;SDS011;50516;52.272;5.136;2022-09-27T04:42:59;6.82;;;1.63;;
64199;SDS011;50516;52.272;5.136;2022-09-27T04:45:25;6.18;;;1.98;;
64199;SDS011;50516;52.272;5.136;2022-09-27T04:47:50;8.13;;;2.08;;
64199;SDS011;50516;52.272;5.136;2022-09-27T04:50:16;8.50;;;1.90;;
64199;SDS011;50516;52.272;5.136;2022-09-27T04:52:42;8.05;;;2.10;;
64199;SDS011;50516;52.272;5.136;2022-09-27T04:55:08;7.50;;;2.05;;
64199;SDS011;50516;52.272;5.136;2022-09-27T04:57:35;4.82;;;1.95;;
64199;SDS011;50516;52.272;5.136;2022-09-27T05:00:01;7.55;;;1.48;;
64199;SDS011;50516;52.272;5.136;2022-09-27T05:02:28;2.30;;;1.17;;
64199;SDS011;50516;52.272;5.136;2022-09-27T05:04:53;5.88;;;1.65;;
64199;SDS011;50516;52.272;5.136;2022-09-27T05:07:23;4.68;;;1.48;;
64199;SDS011;50516;52.272;5.136;2022-09-27T05:09:51;4.05;;;1.20;;
64199;SDS011;50516;52.272;5.136;2022-09-27T05:12:18;6.03;;;1.80;;
64199;SDS011;50516;52.272;5.136;2022-09-27T05:14:43;5.75;;;1.80;;
64199;SDS011;50516;52.272;5.136;2022-09-27T05:17:09;5.53;;;1.73;;
64199;SDS011;50516;52.272;5.136;2022-09-27T05:19:34;5.38;;;1.60;;
64199;SDS011;50516;52.272;5.136;2022-09-27T05:22:00;4.50;;;1.90;;
64199;SDS011;50516;52.272;5.136;2022-09-27T05:24:25;5.18;;;1.45;;
64199;SDS011;50516;52.272;5.136;2022-09-27T05:26:52;8.35;;;1.70;;
64199;SDS011;50516;52.272;5.136;2022-09-27T05:29:20;5.05;;;2.00;;
64199;SDS011;50516;52.272;5.136;2022-09-27T05:31:46;10.00;;;1.70;;
64199;SDS011;50516;52.272;5.136;2022-09-27T05:34:11;9.30;;;2.13;;
64199;SDS011;50516;52.272;5.136;2022-09-27T05:36:37;7.47;;;1.40;;
64199;SDS011;50516;52.272;5.136;2022-09-27T05:39:02;6.47;;;2.10;;
64199;SDS011;50516;52.272;5.136;2022-09-27T05:41:28;4.57;;;1.70;;
64199;SDS011;50516;52.272;5.136;2022-09-27T05:43:53;5.90;;;1.90;;
64199;SDS011;50516;52.272;5.136;2022-09-27T05:46:19;9.15;;;2.38;;
64199;SDS011;50516;52.272;5.136;2022-09-27T05:48:45;8.68;;;2.30;;
64199;SDS011;50516;52.272;5.136;2022-09-27T05:51:10;8.20;;;2.20;;
64199;SDS011;50516;52.272;5.136;2022-09-27T05:53:35;11.25;;;2.38;;
64199;SDS011;50516;52.272;5.136;2022-09-27T05:56:01;5.30;;;2.25;;
64199;SDS011;50516;52.272;5.136;2022-09-27T05:58:29;7.50;;;2.05;;
64199;SDS011;50516;52.272;5.136;2022-09-27T06:00:55;7.85;;;2.30;;
64199;SDS011;50516;52.272;5.136;2022-09-27T06:03:20;4.70;;;1.75;;
64199;SDS011;50516;52.272;5.136;2022-09-27T06:05:45;9.57;;;1.50;;
64199;SDS011;50516;52.272;5.136;2022-09-27T06:08:12;4.72;;;1.65;;
64199;SDS011;50516;52.272;5.136;2022-09-27T06:10:38;8.07;;;1.73;;
64199;SDS011;50516;52.272;5.136;2022-09-27T06:13:06;6.53;;;1.73;;
64199;SDS011;50516;52.272;5.136;2022-09-27T06:15:36;3.13;;;1.38;;
64199;SDS011;50516;52.272;5.136;2022-09-27T06:18:06;6.00;;;1.75;;
64199;SDS011;50516;52.272;5.136;2022-09-27T06:20:34;5.93;;;1.48;;
64199;SDS011;50516;52.272;5.136;2022-09-27T06:23:03;4.07;;;1.45;;
64199;SDS011;50516;52.272;5.136;2022-09-27T06:25:29;4.97;;;1.45;;
64199;SDS011;50516;52.272;5.136;2022-09-27T06:27:54;7.05;;;1.58;;
64199;SDS011;50516;52.272;5.136;2022-09-27T06:30:20;4.18;;;2.00;;
64199;SDS011;50516;52.272;5.136;2022-09-27T06:32:45;6.25;;;1.40;;
64199;SDS011;50516;52.272;5.136;2022-09-27T06:35:10;8.20;;;2.00;;
64199;SDS011;50516;52.272;5.136;2022-09-27T06:37:36;7.63;;;1.98;;
64199;SDS011;50516;52.272;5.136;2022-09-27T06:40:01;8.55;;;1.73;;
64199;SDS011;50516;52.272;5.136;2022-09-27T06:42:27;6.50;;;2.00;;
64199;SDS011;50516;52.272;5.136;2022-09-27T06:44:53;5.75;;;1.83;;
64199;SDS011;50516;52.272;5.136;2022-09-27T06:47:19;8.02;;;1.75;;
64199;SDS011;50516;52.272;5.136;2022-09-27T06:49:44;9.73;;;1.98;;
64199;SDS011;50516;52.272;5.136;2022-09-27T06:52:10;7.70;;;2.25;;
64199;SDS011;50516;52.272;5.136;2022-09-27T06:54:35;4.57;;;1.63;;
64199;SDS011;50516;52.272;5.136;2022-09-27T06:57:00;6.10;;;1.88;;
64199;SDS011;50516;52.272;5.136;2022-09-27T06:59:26;5.32;;;1.45;;
64199;SDS011;50516;52.272;5.136;2022-09-27T07:02:10;6.68;;;2.33;;
64199;SDS011;50516;52.272;5.136;2022-09-27T07:04:36;3.70;;;1.70;;
64199;SDS011;50516;52.272;5.136;2022-09-27T07:07:01;7.50;;;2.40;;
64199;SDS011;50516;52.272;5.136;2022-09-27T07:09:26;8.23;;;2.17;;
64199;SDS011;50516;52.272;5.136;2022-09-27T07:11:52;8.48;;;2.50;;
64199;SDS011;50516;52.272;5.136;2022-09-27T07:14:19;4.93;;;1.77;;
64199;SDS011;50516;52.272;5.136;2022-09-27T07:16:44;6.18;;;1.92;;
64199;SDS011;50516;52.272;5.136;2022-09-27T07:19:10;10.18;;;2.15;;
64199;SDS011;50516;52.272;5.136;2022-09-27T07:21:37;6.57;;;2.10;;
64199;SDS011;50516;52.272;5.136;2022-09-27T07:24:02;4.00;;;1.80;;
64199;SDS011;50516;52.272;5.136;2022-09-27T07:26:28;6.90;;;1.92;;
64199;SDS011;50516;52.272;5.136;2022-09-27T07:28:53;9.57;;;2.00;;
64199;SDS011;50516;52.272;5.136;2022-09-27T07:31:20;6.50;;;2.38;;
64199;SDS011;50516;52.272;5.136;2022-09-27T07:33:45;5.85;;;2.20;;
64199;SDS011;50516;52.272;5.136;2022-09-27T07:36:11;5.10;;;1.95;;
64199;SDS011;50516;52.272;5.136;2022-09-27T07:38:37;4.70;;;1.85;;
64199;SDS011;50516;52.272;5.136;2022-09-27T07:41:09;5.32;;;2.33;;
64199;SDS011;50516;52.272;5.136;2022-09-27T07:43:37;7.55;;;2.40;;
64199;SDS011;50516;52.272;5.136;2022-09-27T07:46:03;6.15;;;2.08;;
64199;SDS011;50516;52.272;5.136;2022-09-27T07:48:28;8.13;;;2.00;;
64199;SDS011;50516;52.272;5.136;2022-09-27T07:50:54;7.53;;;1.90;;
64199;SDS011;50516;52.272;5.136;2022-09-27T07:53:19;6.22;;;2.25;;
64199;SDS011;50516;52.272;5.136;2022-09-27T07:55:48;8.63;;;2.20;;
64199;SDS011;50516;52.272;5.136;2022-09-27T07:58:16;4.35;;;1.77;;
64199;SDS011;50516;52.272;5.136;2022-09-27T08:00:42;7.55;;;2.03;;
64199;SDS011;50516;52.272;5.136;2022-09-27T08:03:12;8.90;;;1.60;;
64199;SDS011;50516;52.272;5.136;2022-09-27T08:05:40;7.28;;;1.95;;
64199;SDS011;50516;52.272;5.136;2022-09-27T08:08:09;3.70;;;1.90;;
64199;SDS011;50516;52.272;5.136;2022-09-27T08:10:34;7.60;;;2.10;;
64199;SDS011;50516;52.272;5.136;2022-09-27T08:13:00;10.20;;;1.95;;
64199;SDS011;50516;52.272;5.136;2022-09-27T08:15:27;5.45;;;1.48;;
64199;SDS011;50516;52.272;5.136;2022-09-27T08:17:53;10.93;;;1.95;;
64199;SDS011;50516;52.272;5.136;2022-09-27T08:20:19;4.28;;;1.77;;
64199;SDS011;50516;52.272;5.136;2022-09-27T08:22:44;8.00;;;1.80;;
64199;SDS011;50516;52.272;5.136;2022-09-27T08:25:10;5.65;;;1.52;;
64199;SDS011;50516;52.272;5.136;2022-09-27T08:27:36;3.30;;;1.52;;
64199;SDS011;50516;52.272;5.136;2022-09-27T08:30:01;4.43;;;1.25;;
64199;SDS011;50516;52.272;5.136;2022-09-27T08:32:28;5.30;;;1.60;;
64199;SDS011;50516;52.272;5.136;2022-09-27T08:34:54;6.72;;;1.92;;
64199;SDS011;50516;52.272;5.136;2022-09-27T08:37:20;5.95;;;1.98;;
64199;SDS011;50516;52.272;5.136;2022-09-27T08:39:46;4.75;;;1.60;;
64199;SDS011;50516;52.272;5.136;2022-09-27T08:42:18;4.45;;;1.67;;
64199;SDS011;50516;52.272;5.136;2022-09-27T08:50:16;6.45;;;1.92;;
64199;SDS011;50516;52.272;5.136;2022-09-27T08:52:55;9.75;;;2.10;;
64199;SDS011;50516;52.272;5.136;2022-09-27T08:55:29;5.00;;;2.03;;
64199;SDS011;50516;52.272;5.136;2022-09-27T08:58:13;5.60;;;2.17;;
64199;SDS011;50516;52.272;5.136;2022-09-27T09:00:47;7.13;;;2.10;;
64199;SDS011;50516;52.272;5.136;2022-09-27T09:03:16;7.28;;;2.33;;
64199;SDS011;50516;52.272;5.136;2022-09-27T09:06:28;7.38;;;2.30;;
64199;SDS011;50516;52.272;5.136;2022-09-27T09:14:48;11.48;;;2.15;;
64199;SDS011;50516;52.272;5.136;2022-09-27T09:31:00;7.65;;;3.30;;
64199;SDS011;50516;52.272;5.136;2022-09-27T09:44:15;6.90;;;2.47;;
64199;SDS011;50516;52.272;5.136;2022-09-27T09:46:43;5.25;;;1.85;;
64199;SDS011;50516;52.272;5.136;2022-09-27T09:52:04;7.40;;;2.60;;
64199;SDS011;50516;52.272;5.136;2022-09-27T09:54:51;6.38;;;2.25;;
64199;SDS011;50516;52.272;5.136;2022-09-27T09:57:29;8.82;;;2.28;;
64199;SDS011;50516;52.272;5.136;2022-09-27T10:00:02;7.25;;;2.58;;
64199;SDS011;50516;52.272;5.136;2022-09-27T10:02:36;4.45;;;2.03;;
64199;SDS011;50516;52.272;5.136;2022-09-27T10:05:03;9.77;;;1.85;;
64199;SDS011;50516;52.272;5.136;2022-09-27T10:07:30;6.05;;;1.65;;
64199;SDS011;50516;52.272;5.136;2022-09-27T10:09:59;6.75;;;2.35;;
64199;SDS011;50516;52.272;5.136;2022-09-27T10:12:25;9.18;;;2.72;;
64199;SDS011;50516;52.272;5.136;2022-09-27T10:14:52;7.65;;;2.20;;
64199;SDS011;50516;52.272;5.136;2022-09-27T10:17:22;11.82;;;2.10;;
64199;SDS011;50516;52.272;5.136;2022-09-27T10:19:51;4.18;;;1.80;;
64199;SDS011;50516;52.272;5.136;2022-09-27T10:25:00;4.88;;;1.70;;
64199;SDS011;50516;52.272;5.136;2022-09-27T10:27:27;3.28;;;1.27;;
64199;SDS011;50516;52.272;5.136;2022-09-27T10:30:03;6.18;;;2.00;;
64199;SDS011;50516;52.272;5.136;2022-09-27T10:32:32;4.07;;;1.80;;
64199;SDS011;50516;52.272;5.136;2022-09-27T10:37:57;6.20;;;1.50;;
64199;SDS011;50516;52.272;5.136;2022-09-27T10:40:47;3.50;;;1.40;;
64199;SDS011;50516;52.272;5.136;2022-09-27T10:43:24;7.53;;;1.83;;
64199;SDS011;50516;52.272;5.136;2022-09-27T10:49:07;3.20;;;1.50;;
64199;SDS011;50516;52.272;5.136;2022-09-27T10:51:33;5.85;;;1.55;;
64199;SDS011;50516;52.272;5.136;2022-09-27T10:53:58;6.53;;;1.58;;
64199;SDS011;50516;52.272;5.136;2022-09-27T10:56:29;5.90;;;1.67;;
64199;SDS011;50516;52.272;5.136;2022-09-27T10:58:56;7.03;;;1.88;;
64199;SDS011;50516;52.272;5.136;2022-09-27T11:01:24;9.38;;;2.33;;
64199;SDS011;50516;52.272;5.136;2022-09-27T11:03:51;3.88;;;1.70;;
64199;SDS011;50516;52.272;5.136;2022-09-27T11:08:49;4.18;;;1.63;;
64199;SDS011;50516;52.272;5.136;2022-09-27T11:11:21;11.65;;;3.47;;
64199;SDS011;50516;52.272;5.136;2022-09-27T11:30:06;4.90;;;1.73;;
64199;SDS011;50516;52.272;5.136;2022-09-27T11:35:38;10.55;;;2.30;;
64199;SDS011;50516;52.272;5.136;2022-09-27T11:43:20;6.95;;;1.80;;
64199;SDS011;50516;52.272;5.136;2022-09-27T11:48:24;5.20;;;1.75;;
64199;SDS011;50516;52.272;5.136;2022-09-27T11:53:58;4.65;;;1.33;;
64199;SDS011;50516;52.272;5.136;2022-09-27T11:56:54;8.30;;;1.80;;
64199;SDS011;50516;52.272;5.136;2022-09-27T12:10:08;4.45;;;1.90;;
64199;SDS011;50516;52.272;5.136;2022-09-27T12:12:37;4.25;;;1.60;;
64199;SDS011;50516;52.272;5.136;2022-09-27T12:15:10;4.15;;;1.60;;
64199;SDS011;50516;52.272;5.136;2022-09-27T12:17:40;4.15;;;1.67;;
64199;SDS011;50516;52.272;5.136;2022-09-27T12:20:18;6.47;;;1.98;;
64199;SDS011;50516;52.272;5.136;2022-09-27T12:22:59;9.95;;;2.08;;
64199;SDS011;50516;52.272;5.136;2022-09-27T12:25:28;6.70;;;1.48;;
64199;SDS011;50516;52.272;5.136;2022-09-27T12:30:33;7.50;;;1.88;;
64199;SDS011;50516;52.272;5.136;2022-09-27T12:35:56;4.85;;;1.80;;
64199;SDS011;50516;52.272;5.136;2022-09-27T12:41:06;4.97;;;1.70;;
64199;SDS011;50516;52.272;5.136;2022-09-27T12:43:36;5.03;;;1.95;;
64199;SDS011;50516;52.272;5.136;2022-09-27T12:49:12;3.67;;;1.60;;
64199;SDS011;50516;52.272;5.136;2022-09-27T12:51:46;4.85;;;1.77;;
64199;SDS011;50516;52.272;5.136;2022-09-27T13:04:51;7.15;;;1.75;;
64199;SDS011;50516;52.272;5.136;2022-09-27T13:12:53;7.88;;;2.28;;
64199;SDS011;50516;52.272;5.136;2022-09-27T13:17:57;6.15;;;1.98;;
64199;SDS011;50516;52.272;5.136;2022-09-27T13:22:57;4.43;;;2.20;;
64199;SDS011;50516;52.272;5.136;2022-09-27T13:28:56;10.00;;;2.42;;
64199;SDS011;50516;52.272;5.136;2022-09-27T13:34:52;5.40;;;1.77;;
64199;SDS011;50516;52.272;5.136;2022-09-27T13:40:09;6.13;;;2.17;;
64199;SDS011;50516;52.272;5.136;2022-09-27T13:45:40;5.63;;;2.25;;
64199;SDS011;50516;52.272;5.136;2022-09-27T13:50:48;4.55;;;1.75;;
64199;SDS011;50516;52.272;5.136;2022-09-27T13:53:31;5.57;;;1.55;;
64199;SDS011;50516;52.272;5.136;2022-09-27T13:56:00;4.60;;;2.38;;
64199;SDS011;50516;52.272;5.136;2022-09-27T14:01:21;7.03;;;1.83;;
64199;SDS011;50516;52.272;5.136;2022-09-27T14:03:58;2.13;;;1.50;;
64199;SDS011;50516;52.272;5.136;2022-09-27T14:06:30;1.98;;;0.88;;
64199;SDS011;50516;52.272;5.136;2022-09-27T14:09:05;4.18;;;1.65;;
64199;SDS011;50516;52.272;5.136;2022-09-27T14:11:41;2.45;;;1.33;;
64199;SDS011;50516;52.272;5.136;2022-09-27T14:14:15;3.60;;;1.25;;
64199;SDS011;50516;52.272;5.136;2022-09-27T14:16:43;5.00;;;1.60;;
64199;SDS011;50516;52.272;5.136;2022-09-27T14:19:15;4.43;;;1.33;;
64199;SDS011;50516;52.272;5.136;2022-09-27T14:21:44;3.28;;;1.42;;
64199;SDS011;50516;52.272;5.136;2022-09-27T14:24:19;7.68;;;1.83;;
64199;SDS011;50516;52.272;5.136;2022-09-27T14:27:02;5.65;;;1.85;;
64199;SDS011;50516;52.272;5.136;2022-09-27T14:29:55;8.80;;;1.90;;
64199;SDS011;50516;52.272;5.136;2022-09-27T14:32:23;5.22;;;1.52;;
64199;SDS011;50516;52.272;5.136;2022-09-27T14:37:28;6.53;;;1.95;;
64199;SDS011;50516;52.272;5.136;2022-09-27T14:40:03;5.80;;;1.80;;
64199;SDS011;50516;52.272;5.136;2022-09-27T14:42:35;16.30;;;2.80;;
64199;SDS011;50516;52.272;5.136;2022-09-27T14:45:44;5.72;;;1.63;;
64199;SDS011;50516;52.272;5.136;2022-09-27T14:47:58;5.50;;;1.65;;
64199;SDS011;50516;52.272;5.136;2022-09-27T14:50:25;3.97;;;1.50;;
64199;SDS011;50516;52.272;5.136;2022-09-27T14:52:53;4.28;;;1.88;;
64199;SDS011;50516;52.272;5.136;2022-09-27T14:55:23;4.78;;;1.95;;
64199;SDS011;50516;52.272;5.136;2022-09-27T14:57:52;7.68;;;3.35;;
64199;SDS011;50516;52.272;5.136;2022-09-27T15:00:28;4.70;;;1.67;;
64199;SDS011;50516;52.272;5.136;2022-09-27T15:02:56;3.53;;;1.73;;
64199;SDS011;50516;52.272;5.136;2022-09-27T15:05:25;5.05;;;1.90;;
64199;SDS011;50516;52.272;5.136;2022-09-27T15:07:54;5.97;;;1.83;;
64199;SDS011;50516;52.272;5.136;2022-09-27T15:10:23;3.75;;;1.50;;
64199;SDS011;50516;52.272;5.136;2022-09-27T15:12:52;3.65;;;1.70;;
64199;SDS011;50516;52.272;5.136;2022-09-27T15:15:23;4.05;;;1.70;;
64199;SDS011;50516;52.272;5.136;2022-09-27T15:17:51;4.07;;;1.90;;
64199;SDS011;50516;52.272;5.136;2022-09-27T15:20:31;10.35;;;3.08;;
64199;SDS011;50516;52.272;5.136;2022-09-27T15:22:58;7.40;;;2.95;;
64199;SDS011;50516;52.272;5.136;2022-09-27T15:25:35;6.78;;;2.40;;
64199;SDS011;50516;52.272;5.136;2022-09-27T15:28:15;8.07;;;2.53;;
64199;SDS011;50516;52.272;5.136;2022-09-27T15:30:52;5.70;;;2.80;;
64199;SDS011;50516;52.272;5.136;2022-09-27T15:33:22;7.30;;;2.53;;
64199;SDS011;50516;52.272;5.136;2022-09-27T15:35:51;6.55;;;2.60;;
64199;SDS011;50516;52.272;5.136;2022-09-27T15:38:26;7.82;;;2.83;;
64199;SDS011;50516;52.272;5.136;2022-09-27T15:41:12;6.75;;;2.50;;
64199;SDS011;50516;52.272;5.136;2022-09-27T15:43:46;7.35;;;2.58;;
64199;SDS011;50516;52.272;5.136;2022-09-27T15:51:50;6.35;;;2.70;;
64199;SDS011;50516;52.272;5.136;2022-09-27T15:54:20;9.70;;;3.10;;
64199;SDS011;50516;52.272;5.136;2022-09-27T15:56:47;5.60;;;2.67;;
64199;SDS011;50516;52.272;5.136;2022-09-27T15:59:24;5.32;;;2.70;;
64199;SDS011;50516;52.272;5.136;2022-09-27T16:01:53;6.95;;;2.60;;
64199;SDS011;50516;52.272;5.136;2022-09-27T16:04:20;7.45;;;3.30;;
64199;SDS011;50516;52.272;5.136;2022-09-27T16:06:45;7.30;;;3.13;;
64199;SDS011;50516;52.272;5.136;2022-09-27T16:09:14;6.38;;;3.13;;
64199;SDS011;50516;52.272;5.136;2022-09-27T16:11:45;6.28;;;2.90;;
64199;SDS011;50516;52.272;5.136;2022-09-27T16:14:12;6.65;;;2.78;;
64199;SDS011;50516;52.272;5.136;2022-09-27T16:16:41;5.60;;;2.90;;
64199;SDS011;50516;52.272;5.136;2022-09-27T16:19:08;7.45;;;3.00;;
64199;SDS011;50516;52.272;5.136;2022-09-27T16:21:33;6.10;;;2.78;;
64199;SDS011;50516;52.272;5.136;2022-09-27T16:23:59;8.02;;;3.03;;
64199;SDS011;50516;52.272;5.136;2022-09-27T16:26:24;9.52;;;3.00;;
64199;SDS011;50516;52.272;5.136;2022-09-27T16:28:50;10.30;;;2.67;;
64199;SDS011;50516;52.272;5.136;2022-09-27T16:31:15;8.40;;;2.53;;
64199;SDS011;50516;52.272;5.136;2022-09-27T16:33:41;6.57;;;3.13;;
64199;SDS011;50516;52.272;5.136;2022-09-27T16:36:07;8.30;;;2.58;;
64199;SDS011;50516;52.272;5.136;2022-09-27T16:38:42;5.20;;;2.00;;
64199;SDS011;50516;52.272;5.136;2022-09-27T16:41:08;8.05;;;2.20;;
64199;SDS011;50516;52.272;5.136;2022-09-27T16:43:33;8.13;;;2.40;;
64199;SDS011;50516;52.272;5.136;2022-09-27T16:46:05;7.57;;;2.13;;
64199;SDS011;50516;52.272;5.136;2022-09-27T16:48:33;8.00;;;2.08;;
64199;SDS011;50516;52.272;5.136;2022-09-27T16:51:06;7.32;;;1.98;;
64199;SDS011;50516;52.272;5.136;2022-09-27T16:53:54;8.50;;;2.80;;
64199;SDS011;50516;52.272;5.136;2022-09-27T16:56:19;5.22;;;2.33;;
64199;SDS011;50516;52.272;5.136;2022-09-27T16:58:45;11.90;;;3.00;;
64199;SDS011;50516;52.272;5.136;2022-09-27T17:01:11;8.40;;;2.55;;
64199;SDS011;50516;52.272;5.136;2022-09-27T17:03:37;8.20;;;2.55;;
64199;SDS011;50516;52.272;5.136;2022-09-27T17:06:02;5.30;;;2.17;;
64199;SDS011;50516;52.272;5.136;2022-09-27T17:08:28;5.20;;;2.65;;
64199;SDS011;50516;52.272;5.136;2022-09-27T17:10:54;6.53;;;2.40;;
64199;SDS011;50516;52.272;5.136;2022-09-27T17:13:20;4.97;;;2.70;;
64199;SDS011;50516;52.272;5.136;2022-09-27T17:15:47;5.35;;;2.17;;
64199;SDS011;50516;52.272;5.136;2022-09-27T17:18:12;3.60;;;1.80;;
64199;SDS011;50516;52.272;5.136;2022-09-27T17:20:38;5.53;;;2.15;;
64199;SDS011;50516;52.272;5.136;2022-09-27T17:23:04;8.73;;;2.40;;
64199;SDS011;50516;52.272;5.136;2022-09-27T17:25:29;5.20;;;2.33;;
64199;SDS011;50516;52.272;5.136;2022-09-27T17:27:55;5.07;;;2.28;;
64199;SDS011;50516;52.272;5.136;2022-09-27T17:30:20;10.48;;;3.75;;
64199;SDS011;50516;52.272;5.136;2022-09-27T17:32:46;6.65;;;3.75;;
64199;SDS011;50516;52.272;5.136;2022-09-27T17:35:12;8.30;;;4.05;;
64199;SDS011;50516;52.272;5.136;2022-09-27T17:37:37;5.22;;;3.83;;
64199;SDS011;50516;52.272;5.136;2022-09-27T17:40:03;6.90;;;4.07;;
64199;SDS011;50516;52.272;5.136;2022-09-27T17:42:28;6.75;;;3.55;;
64199;SDS011;50516;52.272;5.136;2022-09-27T17:44:54;8.93;;;3.20;;
64199;SDS011;50516;52.272;5.136;2022-09-27T17:47:19;6.70;;;2.92;;
64199;SDS011;50516;52.272;5.136;2022-09-27T17:50:03;7.57;;;3.20;;
64199;SDS011;50516;52.272;5.136;2022-09-27T17:52:47;6.60;;;2.60;;
64199;SDS011;50516;52.272;5.136;2022-09-27T17:55:13;5.25;;;2.75;;
64199;SDS011;50516;52.272;5.136;2022-09-27T17:57:39;4.53;;;2.47;;
64199;SDS011;50516;52.272;5.136;2022-09-27T18:00:04;5.00;;;2.50;;
64199;SDS011;50516;52.272;5.136;2022-09-27T18:02:31;4.95;;;2.38;;
64199;SDS011;50516;52.272;5.136;2022-09-27T18:04:56;6.53;;;2.58;;
64199;SDS011;50516;52.272;5.136;2022-09-27T18:07:21;5.80;;;3.03;;
64199;SDS011;50516;52.272;5.136;2022-09-27T18:09:47;7.93;;;3.40;;
64199;SDS011;50516;52.272;5.136;2022-09-27T18:12:14;7.15;;;3.13;;
64199;SDS011;50516;52.272;5.136;2022-09-27T18:14:39;7.22;;;3.45;;
64199;SDS011;50516;52.272;5.136;2022-09-27T18:17:05;8.05;;;3.25;;
64199;SDS011;50516;52.272;5.136;2022-09-27T18:19:30;7.15;;;3.72;;
64199;SDS011;50516;52.272;5.136;2022-09-27T18:21:55;9.68;;;3.20;;